Tiempo atmosférico en la estación meteorológica de Navalvillar De Pela, Badajoz (308 m.)



Fecha
DESCASC
Temp. máxima en grados centígrados (hora)
DESCASC
Temp. mínima en grados centígrados (hora)
DESCASC
Temp. media en grados centígrados
DESCASC
Racha de viento máxima en m/sg (hora)
DESCASC
Velocidad máxima media en intervalos de 10 minutos(hora)
DESCASC
Precipitaciones diarias en mm
DESCASC
Precipitaciones de 00:00 a 06:00 en mm
DESCASC
Precipitaciones de 06:00 a 12:00 en mm
DESCASC
Precipitaciones de 12:00 a 18:00 en mm
DESCASC
Precipitaciones de 18:00 a 24:00 en mm
DESCASC
24-09-2020 25.2 (15:50) 16.9 (03:50) 21.1 11.67 (18:00) 7.78 (16:30) 0 0 0 0 0
23-09-2020 26.3 (16:30) 18.2 (00:00) 22.3 11.11 (19:20) 6.39 (19:30) 0 0 0 0 0
22-09-2020 27.1 (17:20) 14.7 (00:00) 20.9 8.06 (16:40) 4.44 (18:00) 0 0 0 0 0
21-09-2020 26.5 (18:00) 14.3 (00:00) 20.4 7.22 (18:50) 4.17 (18:50) 0 0 0 0 0
20-09-2020 26.1 (17:00) 17.3 (00:00) 21.7 8.61 (17:00) 5.28 (17:30) 0 0 0 0 0
19-09-2020 25.4 (18:00) 17.4 (00:00) 21.4 12.22 (01:10) 6.67 (01:10) 0 0 0 0 0
18-09-2020 23.3 (12:20) 16.3 (00:00) 19.8 14.44 (23:30) 8.89 (23:00) 18.6 12.4 1.4 4.8 0
17-09-2020 29.5 (16:40) 19.9 (00:00) 24.7 13.61 (17:50) 8.33 (17:10) 3 0 0 0 3
16-09-2020 31.6 (15:00) 15.5 (00:00) 23.6 7.5 (23:30) 3.89 (15:20) 0 0 0 0 0
15-09-2020 30.4 (17:00) 18.7 (00:00) 24.6 7.5 (02:30) 4.17 (02:30) 0.8 0.8 0 0 0
14-09-2020 34.6 (16:40) 20.7 (00:00) 27.6 12.22 (21:10) 7.5 (20:40) 2.6 0 0 0 2.6
13-09-2020 36.7 (17:40) 19.9 (00:00) 28.3 7.78 (17:30) 5 (16:40) 0 0 0 0 0
12-09-2020 36.7 (17:50) 16.9 (00:00) 26.8 10 (15:50) 3.06 (15:50) 0 0 0 0 0
11-09-2020 35.6 (17:10) 17.3 (00:00) 26.4 7.5 (17:00) 3.61 (07:30) 0 0 0 0 0
10-09-2020 34.9 (17:50) 14.6 (00:00) 24.8 7.22 (16:00) 4.17 (16:00) 0 0 0 0 0
09-09-2020 32.7 (18:20) 16 (00:00) 24.4 5.83 (17:50) 2.78 (16:00) 0 0 0 0 0
08-09-2020 31.8 (18:50) 16.6 (00:00) 24.2 8.89 (10:30) 6.39 (10:40) 0 0 0 0 0
07-09-2020 35.8 (17:00) 17.5 (07:20) 26.6 9.72 (17:40) 6.39 (17:50) 0 0 0 0 0
06-09-2020 36.7 (18:00) 17.4 (00:00) 27.1 9.72 (17:20) 3.89 (18:20) 0 0 0 0 0
05-09-2020 36.1 (16:40) 17.4 (00:00) 26.7 7.78 (16:20) 3.61 (08:20) 0 0 0 0 0
04-09-2020 36.4 (18:10) 17.3 (00:00) 26.9 12.5 (15:40) 4.17 (15:40) 0 0 0 0 0
03-09-2020 35.6 (17:00) 15.2 (00:00) 25.4 6.11 (14:40) 3.33 (10:10) 0 0 0 0 0
02-09-2020 34.3 (17:00) 13 (00:00) 23.6 6.11 (19:20) 4.17 (19:20) 0 0 0 0 0
01-09-2020 32.1 (16:40) 16.4 (00:00) 24.2 7.5 (16:50) 4.72 (16:10) 0 0 0 0 0
31-08-2020 31.2 (18:50) 14 (00:00) 22.6 6.94 (15:10) 3.33 (06:50) 0 0 0 0 0
30-08-2020 28.8 (18:00) 12.4 (00:00) 20.6 7.78 (10:30) 5 (10:20) 0 0 0 0 0
29-08-2020 28.7 (17:00) 15.1 (00:00) 21.9 10.83 (05:50) 7.22 (04:40) 0 0 0 0 0
28-08-2020 33.1 (17:20) 20 (00:00) 26.5 11.67 (17:00) 7.78 (19:10) 0 0 0 0 0

Gráficas

Temp. máximas Temp. mínimas Temp. medias Precipitaciones Rachas de viento máximas Velocidades máximas media en intervalos de 10 minutos

Datos horarios

Fecha y hora oficial Temperatura (ºC) Velocidad del viento (km/h) Dirección del viento Racha (km/h) Dirección de racha Precipitación (mm) Presión (hPa) Tendencia (hPa) Humedad (%)
2020-09-26 23:00:00 19 19 Noroeste 29 Norte 0 -- -- 55
2020-09-26 22:00:00 20.3 17 Noroeste 33 Noroeste 0 -- -- 47
2020-09-26 21:00:00 20.7 13 Noroeste 24 Noroeste 0 -- -- 45
2020-09-26 20:00:00 22 13 Norte 31 Noroeste 0 -- -- 38
2020-09-26 19:00:00 23.6 15 Norte 33 Noroeste 0 -- -- 31
2020-09-26 18:00:00 24.7 18 Noroeste 32 Oeste 0 -- -- 32
2020-09-26 17:00:00 24.7 14 Noroeste 31 Noroeste 0 -- -- 31
2020-09-26 16:00:00 24.4 14 Norte 30 Sudoeste 0 -- -- 34
2020-09-26 15:00:00 22.8 13 Norte 27 Noroeste 0 -- -- 35
2020-09-26 14:00:00 21.9 13 Noroeste 25 Noroeste 0 -- -- 38
2020-09-26 13:00:00 20.3 12 Noroeste 18 Noroeste 0 -- -- 41
2020-09-26 12:00:00 18.6 6 Noroeste 11 Noroeste 0 -- -- 50
2020-09-26 11:00:00 16.5 5 Norte 11 Norte 0 -- -- 60
2020-09-26 10:00:00 14.6 0 Calma 3 Este 0 -- -- 68
2020-09-26 09:00:00 9.9 0 Calma 4 Sur 0 -- -- 83
2020-09-26 08:00:00 9.6 0 Calma 4 Sudoeste 0 -- -- 79
2020-09-26 07:00:00 9.3 0 Calma 5 Noroeste 0 -- -- 82
2020-09-26 06:00:00 9.8 5 Este 7 Este 0 -- -- 78
2020-09-26 05:00:00 10.5 0 Calma 6 Sudoeste 0 -- -- 76
2020-09-26 04:00:00 10.9 5 Sudoeste 7 Sudoeste 0 -- -- 74
2020-09-26 03:00:00 12.4 5 Nordeste 15 Noroeste 0 -- -- 68
2020-09-26 02:00:00 14.9 9 Noroeste 16 Noroeste 0 -- -- 53
2020-09-26 01:00:00 15.6 11 Noroeste 18 Noroeste 0 -- -- 50
2020-09-26 00:00:00 16.1 12 Oeste 24 Noroeste 0 -- -- 49
2020-09-25 23:00:00 17.2 12 Noroeste 19 Noroeste 0 -- -- 46
2020-09-25 22:00:00 17.8 15 Noroeste 26 Noroeste 0 -- -- 44
2020-09-25 21:00:00 18.5 10 Noroeste 26 Norte 0 -- -- 42
2020-09-25 20:00:00 20 19 Norte 32 Noroeste 0 -- -- 39
2020-09-25 19:00:00 21.8 18 Noroeste 35 Norte 0 -- -- 34
2020-09-25 18:00:00 22.9 23 Noroeste 37 Norte 0 -- -- 31
2020-09-25 17:00:00 23 21 Noroeste 36 Norte 0 -- -- 30
2020-09-25 16:00:00 22.9 19 Norte 40 Noroeste 0 -- -- 32
2020-09-25 15:00:00 22.2 18 Norte 39 Noroeste 0 -- -- 33
2020-09-25 14:00:00 21.1 19 Norte 33 Noroeste 0 -- -- 38
2020-09-25 13:00:00 19.7 22 Noroeste 42 Noroeste 0 -- -- 41
2020-09-25 12:00:00 18.5 23 Norte 48 Noroeste 0 -- -- 47
2020-09-25 11:00:00 17 24 Noroeste 43 Norte 0 -- -- 51
2020-09-25 10:00:00 15.3 22 Noroeste 37 Noroeste 0 -- -- 64
2020-09-25 09:00:00 14 22 Noroeste 37 Noroeste 0 -- -- 73
2020-09-25 08:00:00 12.8 17 Noroeste 26 Noroeste 0 -- -- 80
2020-09-25 07:00:00 13.1 10 Noroeste 21 Noroeste 0 -- -- 78
2020-09-25 06:00:00 13.6 14 Noroeste 24 Noroeste 0 -- -- 76
2020-09-25 05:00:00 13.9 17 Noroeste 30 Noroeste 0 -- -- 75
2020-09-25 04:00:00 14.5 15 Noroeste 24 Oeste 0 -- -- 71
2020-09-25 03:00:00 14.9 13 Noroeste 21 Noroeste 0 -- -- 71
2020-09-25 02:00:00 15.9 13 Noroeste 25 Noroeste 0 -- -- 68
2020-09-25 01:00:00 16.7 12 Noroeste 26 Noroeste 0 -- -- 69
2020-09-25 00:00:00 17.8 12 Noroeste 22 Noroeste 0 -- -- 70
2020-09-24 23:00:00 19.1 14 Noroeste 32 Noroeste 0 -- -- 68
2020-09-24 22:00:00 20.1 17 Noroeste 29 Noroeste 0 -- -- 66
2020-09-24 21:00:00 21.1 19 Noroeste 31 Noroeste 0 -- -- 66
2020-09-24 20:00:00 22.9 21 Noroeste 38 Noroeste 0 -- -- 61
2020-09-24 19:00:00 24.5 23 Noroeste 39 Noroeste 0 -- -- 58
2020-09-24 18:00:00 23.9 25 Noroeste 42 Noroeste 0 -- -- 62
2020-09-24 17:00:00 24.3 27 Noroeste 41 Oeste 0 -- -- 62
2020-09-24 16:00:00 25.2 24 Oeste 40 Noroeste 0 -- -- 61
2020-09-24 15:00:00 24.3 20 Noroeste 36 Noroeste 0 -- -- 65
2020-09-24 14:00:00 22.8 18 Noroeste 30 Noroeste 0 -- -- 70
2020-09-24 13:00:00 22.4 16 Noroeste 27 Noroeste 0 -- -- 71
2020-09-24 12:00:00 21.2 13 Noroeste 26 Oeste 0 -- -- 76
2020-09-24 11:00:00 20.3 12 Oeste 22 Oeste 0 -- -- 80
2020-09-24 10:00:00 19.6 11 Oeste 24 Oeste 0 -- -- 85
2020-09-24 09:00:00 19 11 Oeste 20 Oeste 0 -- -- 89
2020-09-24 08:00:00 18.7 10 Noroeste 23 Oeste 0 -- -- 90
2020-09-24 07:00:00 18.9 12 Noroeste 19 Noroeste 0 -- -- 89
2020-09-24 06:00:00 19.1 12 Noroeste 21 Oeste 0 -- -- 88
2020-09-24 05:00:00 18.2 11 Oeste 19 Noroeste 0 -- -- 95
2020-09-24 04:00:00 16.9 3 Sudeste 7 Este 0 -- -- 93
2020-09-24 03:00:00 17.5 2 Este 10 Noroeste 0 -- -- 91
2020-09-24 02:00:00 19.4 7 Noroeste 16 Oeste 0 -- -- 85
2020-09-24 01:00:00 19.4 8 Noroeste 17 Oeste 0 -- -- 87
2020-09-24 00:00:00 19.4 5 Noroeste 16 Noroeste 0 -- -- 85
2020-09-23 23:00:00 19.8 10 Noroeste 20 Oeste 0 -- -- 83
2020-09-23 22:00:00 20.4 12 Noroeste 25 Noroeste 0 -- -- 79
2020-09-23 21:00:00 21.4 17 Noroeste 26 Noroeste 0 -- -- 74
2020-09-23 20:00:00 21.8 14 Oeste 40 Noroeste 0 -- -- 70
2020-09-23 19:00:00 24.3 16 Noroeste 30 Oeste 0 -- -- 55
2020-09-23 18:00:00 25.4 15 Noroeste 27 Noroeste 0 -- -- 50
2020-09-23 17:00:00 26.1 18 Noroeste 30 Noroeste 0 -- -- 47
2020-09-23 16:00:00 25 17 Noroeste 28 Noroeste 0 -- -- 48
2020-09-23 15:00:00 25.5 16 Oeste 32 Noroeste 0 -- -- 47
2020-09-23 14:00:00 24.6 15 Noroeste 28 Noroeste 0 -- -- 49
2020-09-23 13:00:00 23.1 14 Noroeste 26 Norte 0 -- -- 56
2020-09-23 12:00:00 22.4 13 Noroeste 23 Noroeste 0 -- -- 64
2020-09-23 11:00:00 20.4 9 Noroeste 24 Noroeste 0 -- -- 73
2020-09-23 10:00:00 19 13 Noroeste 24 Noroeste 0 -- -- 80
2020-09-23 09:00:00 18.5 11 Noroeste 24 Noroeste 0 -- -- 84
2020-09-23 08:00:00 18.3 15 Noroeste 27 Noroeste 0 -- -- 85
2020-09-23 07:00:00 18.5 19 Noroeste 28 Noroeste 0 -- -- 85
2020-09-23 06:00:00 18.9 17 Noroeste 31 Noroeste 0 -- -- 82
2020-09-23 05:00:00 19.7 13 Oeste 23 Oeste 0 -- -- 76
2020-09-23 04:00:00 20.3 12 Oeste 20 Oeste 0 -- -- 70
2020-09-23 03:00:00 19.8 0 Calma 12 Oeste 0 -- -- 73
2020-09-23 02:00:00 21.8 7 Noroeste 14 Oeste 0 -- -- 62
2020-09-23 01:00:00 22.2 9 Oeste 18 Oeste 0 -- -- 60
2020-09-23 00:00:00 22.6 11 Oeste 21 Oeste 0 -- -- 59
2020-09-22 23:00:00 22.9 11 Oeste 19 Noroeste 0 -- -- 58
2020-09-22 22:00:00 23.1 11 Oeste 18 Noroeste 0 -- -- 56
2020-09-22 21:00:00 23.4 8 Oeste 17 Noroeste 0 -- -- 55
2020-09-22 20:00:00 24.5 11 Noroeste 24 Noroeste 0 -- -- 50
2020-09-22 19:00:00 26.3 13 Noroeste 28 Noroeste 0 -- -- 43
2020-09-22 18:00:00 26.7 16 Noroeste 28 Noroeste 0 -- -- 46
2020-09-22 17:00:00 27 15 Noroeste 29 Noroeste 0 -- -- 46
2020-09-22 16:00:00 26.6 9 Noroeste 26 Noroeste 0 -- -- 47
2020-09-22 15:00:00 25.6 13 Noroeste 22 Noroeste 0 -- -- 48
2020-09-22 14:00:00 25.1 9 Noroeste 18 Noroeste 0 -- -- 50
2020-09-22 13:00:00 24 9 Noroeste 18 Noroeste 0 -- -- 52
2020-09-22 12:00:00 22.5 6 Noroeste 17 Norte 0 -- -- 57
2020-09-22 11:00:00 20.7 4 Noroeste 13 Noroeste 0 -- -- 65
2020-09-22 10:00:00 18.2 3 Nordeste 8 Norte 0 -- -- 76
2020-09-22 09:00:00 14.8 4 Este 8 Oeste 0 -- -- 88
2020-09-22 08:00:00 15.1 2 Norte 13 Oeste 0 -- -- 83
2020-09-22 07:00:00 16.9 4 Noroeste 15 Noroeste 0 -- -- 75
2020-09-22 06:00:00 17.8 10 Oeste 18 Oeste 0 -- -- 70
2020-09-22 05:00:00 18 11 Oeste 20 Noroeste 0 -- -- 70
2020-09-22 04:00:00 18.2 10 Oeste 21 Oeste 0 -- -- 69
2020-09-22 03:00:00 18.6 11 Oeste 19 Noroeste 0 -- -- 67
2020-09-22 02:00:00 19.1 8 Oeste 19 Noroeste 0 -- -- 64
2020-09-22 01:00:00 19.7 12 Noroeste 20 Oeste 0 -- -- 58
2020-09-22 00:00:00 20.1 4 Oeste 10 Noroeste 0 -- -- 55
2020-09-21 23:00:00 20.2 8 Oeste 10 Oeste 0 -- -- 54
2020-09-21 22:00:00 20.7 5 Noroeste 9 Noroeste 0 -- -- 54
2020-09-21 21:00:00 22.4 8 Oeste 18 Noroeste 0 -- -- 52
2020-09-21 20:00:00 24.6 12 Oeste 23 Oeste 0 -- -- 45
2020-09-21 19:00:00 26 14 Oeste 26 Noroeste 0 -- -- 40
2020-09-21 18:00:00 26.5 8 Oeste 25 Oeste 0 -- -- 42
2020-09-21 17:00:00 26.1 8 Oeste 20 Noroeste 0 -- -- 43
2020-09-21 16:00:00 25.2 11 Noroeste 22 Oeste 0 -- -- 45
2020-09-21 15:00:00 24.8 10 Noroeste 20 Noroeste 0 -- -- 46
2020-09-21 14:00:00 23.9 12 Noroeste 23 Noroeste 0 -- -- 51
2020-09-21 13:00:00 22.7 13 Noroeste 22 Noroeste 0 -- -- 57
2020-09-21 12:00:00 21.2 8 Oeste 18 Noroeste 0 -- -- 63
2020-09-21 11:00:00 20 5 Norte 10 Noroeste 0 -- -- 71
2020-09-21 10:00:00 17.9 5 Noroeste 8 Noroeste 0 -- -- 79
2020-09-21 09:00:00 15.8 2 Sudoeste 6 Sur 0 -- -- 91
2020-09-21 08:00:00 14.6 4 Sur 5 Sur 0 -- -- 91
2020-09-21 07:00:00 14.5 3 Nordeste 7 Nordeste 0 -- -- 88
2020-09-21 06:00:00 17.4 2 Sudoeste 15 Noroeste 0 -- -- 74
2020-09-21 05:00:00 17.6 10 Oeste 15 Oeste 0 -- -- 75
2020-09-21 04:00:00 17.8 10 Oeste 15 Oeste 0 -- -- 74
2020-09-21 03:00:00 17.5 2 Noroeste 12 Oeste 0 -- -- 75
2020-09-21 02:00:00 18.8 9 Noroeste 15 Noroeste 0 -- -- 69
2020-09-21 01:00:00 19.2 6 Noroeste 12 Noroeste 0 -- -- 67
2020-09-21 00:00:00 19.8 8 Noroeste 12 Oeste 0 -- -- 66
2020-09-20 23:00:00 20.6 7 Oeste 15 Oeste 0 -- -- 65
2020-09-20 22:00:00 22 9 Oeste 14 Oeste 0 -- -- 61
2020-09-20 21:00:00 22.2 7 Oeste 13 Oeste 0 -- -- 62
2020-09-20 20:00:00 23.7 8 Noroeste 21 Noroeste 0 -- -- 57
2020-09-20 19:00:00 24.4 13 Noroeste 22 Norte 0 -- -- 55
2020-09-20 18:00:00 24.6 15 Norte 28 Norte 0 -- -- 57
2020-09-20 17:00:00 26.1 18 Oeste 31 Oeste 0 -- -- 49
2020-09-20 16:00:00 24.9 16 Noroeste 27 Noroeste 0 -- -- 54
2020-09-20 15:00:00 24.3 14 Oeste 25 Noroeste 0 -- -- 56
2020-09-20 14:00:00 23.1 12 Noroeste 22 Oeste 0 -- -- 62
2020-09-20 13:00:00 21.1 13 Noroeste 21 Noroeste 0 -- -- 71
2020-09-20 12:00:00 20 11 Oeste 18 Oeste 0 -- -- 74
2020-09-20 11:00:00 19.5 9 Oeste 18 Oeste 0 -- -- 75
2020-09-20 10:00:00 18.8 8 Sudoeste 14 Noroeste 0 -- -- 78
2020-09-20 09:00:00 18.4 8 Oeste 17 Oeste 0 -- -- 81
2020-09-20 08:00:00 17.4 0 Calma 4 Sur 0 -- -- 89
2020-09-20 07:00:00 17.3 2 Norte 15 Oeste 0 -- -- 87
2020-09-20 06:00:00 17.4 6 Noroeste 17 Oeste 0 -- -- 85
2020-09-20 05:00:00 17.4 10 Oeste 24 Oeste 0 -- -- 85
2020-09-20 04:00:00 17.9 13 Oeste 23 Oeste 0 -- -- 81
2020-09-20 03:00:00 18.3 14 Oeste 24 Oeste 0 -- -- 77
2020-09-20 02:00:00 19.1 14 Oeste 26 Oeste 0 -- -- 73
2020-09-20 01:00:00 19.7 13 Oeste 23 Oeste 0 -- -- 70
2020-09-20 00:00:00 20.6 12 Oeste 21 Oeste 0 -- -- 65
2020-09-19 23:00:00 20.4 6 Oeste 9 Oeste 0 -- -- 65
2020-09-19 22:00:00 20.8 5 Oeste 8 Oeste 0 -- -- 65
2020-09-19 21:00:00 22.1 6 Oeste 17 Noroeste 0 -- -- 59
2020-09-19 20:00:00 22.9 9 Noroeste 23 Noroeste 0 -- -- 55
2020-09-19 19:00:00 23.6 13 Noroeste 31 Noroeste 0 -- -- 51
2020-09-19 18:00:00 25.4 15 Noroeste 33 Noroeste 0 -- -- 47
2020-09-19 17:00:00 24.9 18 Noroeste 33 Oeste 0 -- -- 49
2020-09-19 16:00:00 24.6 21 Noroeste 36 Noroeste 0 -- -- 50
2020-09-19 15:00:00 23.6 16 Noroeste 33 Noroeste 0 -- -- 54
2020-09-19 14:00:00 22.9 17 Noroeste 31 Oeste 0 -- -- 59
2020-09-19 13:00:00 22.4 16 Oeste 28 Oeste 0 -- -- 60
2020-09-19 12:00:00 21.3 19 Oeste 31 Oeste 0 -- -- 65
2020-09-19 11:00:00 20.4 15 Oeste 28 Noroeste 0 -- -- 70
2020-09-19 10:00:00 19.3 12 Oeste 27 Oeste 0 -- -- 75
2020-09-19 09:00:00 17.9 13 Oeste 25 Noroeste 0 -- -- 79
2020-09-19 08:00:00 17.6 10 Oeste 27 Sudoeste 0 -- -- 81
2020-09-19 07:00:00 17.6 14 Sudoeste 28 Sudoeste 0 -- -- 80
2020-09-19 06:00:00 17.6 15 Oeste 30 Oeste 0 -- -- 80
2020-09-19 05:00:00 18 14 Oeste 33 Oeste 0 -- -- 78
2020-09-19 04:00:00 18.3 18 Oeste 33 Sudoeste 0 -- -- 77
2020-09-19 03:00:00 18.1 15 Sudoeste 31 Oeste 0 -- -- 80
2020-09-19 02:00:00 18.9 17 Oeste 44 Oeste 0 -- -- 77
2020-09-19 01:00:00 18.9 23 Sudoeste 37 Oeste 0 -- -- 77
2020-09-19 00:00:00 18.9 20 Oeste 52 Oeste 0 -- -- 76
2020-09-18 23:00:00 20.1 32 Sudoeste 51 Sudoeste 0 -- -- 71
2020-09-18 22:00:00 20.3 19 Sudoeste 51 Sur 0 -- -- 70
2020-09-18 21:00:00 21.1 21 Sudoeste 37 Sudoeste 0 -- -- 68
2020-09-18 20:00:00 21.4 19 Sudoeste 32 Sudoeste 0 -- -- 67
2020-09-18 19:00:00 21.2 19 Sudoeste 37 Sudoeste 0 -- -- 69
2020-09-18 18:00:00 20.6 14 Sudeste 23 Sudeste 0 -- -- 82
2020-09-18 17:00:00 21.2 11 Sudoeste 23 Sur 0.2 -- -- 76
2020-09-18 16:00:00 18.4 9 Sur 27 Oeste 2.8 -- -- 90
2020-09-18 15:00:00 19.1 17 Oeste 36 Oeste 1.6 -- -- 85
2020-09-18 14:00:00 22.2 10 Oeste 21 Sur 0.2 -- -- 70
2020-09-18 13:00:00 22.7 13 Sur 21 Sudeste 0 -- -- 64
2020-09-18 12:00:00 22.8 10 Sudoeste 19 Sudoeste 0 -- -- 66
2020-09-18 11:00:00 20.5 6 Sudoeste 17 Sur 0 -- -- 75
2020-09-18 10:00:00 19.3 9 Sudeste 14 Sudeste 0 -- -- 91
2020-09-18 09:00:00 16.8 4 Sudeste 8 Este 0 -- -- 96
2020-09-18 08:00:00 16.4 3 Sudeste 6 Sur 0.2 -- -- 94
2020-09-18 07:00:00 16.9 3 Norte 18 Oeste 1.2 -- -- 93
2020-09-18 06:00:00 17.2 10 Noroeste 19 Oeste 7.6 -- -- 93
2020-09-18 05:00:00 17.7 4 Noroeste 26 Noroeste 0.4 -- -- 92
2020-09-18 04:00:00 18.5 10 Oeste 44 Sudoeste 4 -- -- 88
2020-09-18 03:00:00 21.8 27 Sudoeste 41 Sudoeste 0 -- -- 70
2020-09-18 02:00:00 21.5 18 Sudoeste 31 Sudoeste 0.4 -- -- 75
2020-09-18 01:00:00 22.7 19 Sudoeste 35 Sudoeste 0 -- -- 68
2020-09-18 00:00:00 23.2 7 Sudoeste 21 Oeste 0 -- -- 64
2020-09-17 23:00:00 23.9 13 Sudoeste 25 Oeste 0 -- -- 62
2020-09-17 22:00:00 22.8 9 Sur 27 Sudoeste 0 -- -- 75
2020-09-17 21:00:00 22.7 15 Sur 28 Sur 0 -- -- 75
2020-09-17 20:00:00 23.7 12 Sudoeste 25 Sur 3 -- -- 69
2020-09-17 19:00:00 26.1 20 Sur 48 Sudoeste 0 -- -- 50
2020-09-17 18:00:00 28.7 22 Oeste 49 Oeste 0 -- -- 43
2020-09-17 17:00:00 29 27 Oeste 49 Sudoeste 0 -- -- 44
2020-09-17 16:00:00 27.9 14 Sur 30 Sudoeste 0 -- -- 48
2020-09-17 15:00:00 26.6 14 Sur 29 Sudoeste 0 -- -- 54
2020-09-17 14:00:00 25.4 20 Sudoeste 30 Sudoeste 0 -- -- 57
2020-09-17 13:00:00 24.1 20 Sur 30 Sur 0 -- -- 65
2020-09-17 12:00:00 24 13 Sur 22 Sudeste 0 -- -- 63
2020-09-17 11:00:00 22 13 Sudeste 24 Sudeste 0 -- -- 70
2020-09-17 10:00:00 22.7 10 Sur 17 Sur 0 -- -- 64
2020-09-17 09:00:00 20.6 4 Sudeste 10 Sur 0 -- -- 69
2020-09-17 08:00:00 19.9 9 Sur 11 Sur 0 -- -- 68
2020-09-17 07:00:00 21.5 8 Sur 14 Sudeste 0 -- -- 60
2020-09-17 06:00:00 22.8 5 Sur 10 Sur 0 -- -- 57
2020-09-17 05:00:00 23.4 8 Sur 14 Sudeste 0 -- -- 56
2020-09-17 04:00:00 23.7 7 Sudoeste 27 Sur 0 -- -- 56
2020-09-17 03:00:00 24.5 20 Sur 28 Sur 0 -- -- 52
2020-09-17 02:00:00 24.7 8 Oeste 12 Oeste 0 -- -- 48
2020-09-17 01:00:00 24.7 4 Sudoeste 13 Sudoeste 0 -- -- 45
2020-09-17 00:00:00 25.9 4 Oeste 27 Oeste 0 -- -- 43
2020-09-16 23:00:00 25.8 7 Oeste 15 Sudoeste 0 -- -- 39
2020-09-16 22:00:00 26.6 8 Oeste 14 Oeste 0 -- -- 44
2020-09-16 21:00:00 27.3 8 Oeste 19 Oeste 0 -- -- 43
2020-09-16 20:00:00 28 11 Oeste 24 Oeste 0 -- -- 43
2020-09-16 19:00:00 29.5 9 Noroeste 24 Noroeste 0 -- -- 41
2020-09-16 18:00:00 30.8 6 Nordeste 13 Este 0 -- -- 36
2020-09-16 17:00:00 31.2 6 Sudeste 21 Sur 0 -- -- 35
2020-09-16 16:00:00 31.5 13 Sur 23 Sur 0 -- -- 35
2020-09-16 15:00:00 31.6 6 Sudeste 21 Sudoeste 0 -- -- 35
2020-09-16 14:00:00 29.6 7 Sudeste 17 Sur 0 -- -- 40
2020-09-16 13:00:00 28.3 8 Sudeste 14 Este 0 -- -- 43
2020-09-16 12:00:00 25.7 5 Este 10 Este 0 -- -- 52
2020-09-16 11:00:00 22.7 4 Este 7 Nordeste 0 -- -- 60
2020-09-16 10:00:00 19.5 3 Este 4 Noroeste 0 -- -- 74
2020-09-16 09:00:00 17.2 4 Sudeste 8 Sur 0 -- -- 82
2020-09-16 08:00:00 15.6 6 Sur 9 Sur 0 -- -- 82
2020-09-16 07:00:00 16.1 3 Sur 6 Norte 0 -- -- 80
2020-09-16 06:00:00 16.3 2 Sudoeste 7 Norte 0 -- -- 84
2020-09-16 05:00:00 16.5 2 Sudoeste 8 Norte 0 -- -- 83
2020-09-16 04:00:00 17.6 2 Norte 3 Norte 0 -- -- 78
2020-09-16 03:00:00 19 0 Calma 6 Sudeste 0 -- -- 71
2020-09-16 02:00:00 19.9 3 Sudeste 5 Sudeste 0 -- -- 69
2020-09-16 01:00:00 20.1 4 Sudeste 6 Sudoeste 0 -- -- 69
2020-09-16 00:00:00 21 3 Oeste 7 Este 0 -- -- 69
2020-09-15 23:00:00 22.9 0 Calma 8 Noroeste 0 -- -- 59
2020-09-15 22:00:00 24.9 6 Oeste 7 Oeste 0 -- -- 53
2020-09-15 21:00:00 26.3 3 Noroeste 8 Norte 0 -- -- 50
2020-09-15 20:00:00 28.5 8 Norte 14 Norte 0 -- -- 44
2020-09-15 19:00:00 29.8 9 Norte 21 Norte 0 -- -- 42
2020-09-15 18:00:00 30.3 12 Norte 23 Norte 0 -- -- 42
2020-09-15 17:00:00 30.4 9 Noroeste 26 Noroeste 0 -- -- 43
2020-09-15 16:00:00 29.4 13 Norte 24 Norte 0 -- -- 46
2020-09-15 15:00:00 28.9 7 Norte 17 Norte 0 -- -- 48
2020-09-15 14:00:00 27.3 9 Nordeste 18 Nordeste 0 -- -- 53
2020-09-15 13:00:00 26.1 6 Norte 15 Noroeste 0 -- -- 56
2020-09-15 12:00:00 24.6 6 Norte 10 Norte 0 -- -- 62
2020-09-15 11:00:00 22.9 3 Norte 6 Nordeste 0 -- -- 65
2020-09-15 10:00:00 21.3 2 Este 8 Sudeste 0 -- -- 72
2020-09-15 09:00:00 19.5 4 Sur 13 Noroeste 0 -- -- 78
2020-09-15 08:00:00 19.7 7 Norte 21 Noroeste 0 -- -- 73
2020-09-15 07:00:00 20.4 11 Noroeste 18 Noroeste 0 -- -- 69
2020-09-15 06:00:00 20.7 10 Noroeste 24 Noroeste 0 -- -- 67
2020-09-15 05:00:00 20.7 15 Noroeste 23 Noroeste 0 -- -- 67
2020-09-15 04:00:00 21.5 12 Noroeste 25 Oeste 0 -- -- 66
2020-09-15 03:00:00 22.5 13 Noroeste 27 Noroeste 0 -- -- 67
2020-09-15 02:00:00 20.4 4 Norte 9 Noroeste 0.8 -- -- 87
2020-09-15 01:00:00 20.8 0 Calma 9 Norte 0 -- -- 83
2020-09-15 00:00:00 21.1 4 Noroeste 12 Sudeste 0 -- -- 82
2020-09-14 23:00:00 22.1 10 Sudeste 18 Sudeste 0 -- -- 75
2020-09-14 22:00:00 22.4 10 Noroeste 44 Noroeste 0.8 -- -- 76
2020-09-14 21:00:00 23.6 18 Noroeste 44 Noroeste 1.8 -- -- 68
2020-09-14 20:00:00 30.7 13 Noroeste 25 Noroeste 0 -- -- 38
2020-09-14 19:00:00 33.4 5 Sudoeste 32 Sudoeste 0 -- -- 30
2020-09-14 18:00:00 32.7 12 Sur 33 Sur 0 -- -- 30
2020-09-14 17:00:00 34.1 9 Sudoeste 37 Sur 0 -- -- 28
2020-09-14 16:00:00 34.1 18 Sur 36 Sur 0 -- -- 28
2020-09-14 15:00:00 33.5 16 Sudoeste 32 Sudoeste 0 -- -- 29
2020-09-14 14:00:00 32.8 9 Sur 28 Sur 0 -- -- 29
2020-09-14 13:00:00 31.1 8 Sudoeste 19 Sur 0 -- -- 32
2020-09-14 12:00:00 29.2 11 Sudeste 21 Sur 0 -- -- 37
2020-09-14 11:00:00 27.6 4 Este 12 Sudeste 0 -- -- 41
2020-09-14 10:00:00 23.9 2 Nordeste 6 Este 0 -- -- 49
2020-09-14 09:00:00 21.8 4 Nordeste 9 Sudoeste 0 -- -- 56
2020-09-14 08:00:00 21.8 7 Sur 10 Sur 0 -- -- 51
2020-09-14 07:00:00 20.8 3 Este 9 Noroeste 0 -- -- 56
2020-09-14 06:00:00 21.5 3 Noroeste 6 Sudoeste 0 -- -- 51
2020-09-14 05:00:00 21.1 6 Este 8 Este 0 -- -- 52
2020-09-14 04:00:00 23 4 Sudoeste 9 Sur 0 -- -- 44
2020-09-14 03:00:00 22.8 7 Sudoeste 10 Sudoeste 0 -- -- 42
2020-09-14 02:00:00 23 5 Sudeste 13 Nordeste 0 -- -- 44
2020-09-14 01:00:00 25 5 Este 15 Sur 0 -- -- 40
2020-09-14 00:00:00 26.9 4 Nordeste 11 Nordeste 0 -- -- 34
2020-09-13 23:00:00 26.9 5 Norte 10 Norte 0 -- -- 34
2020-09-13 22:00:00 28.6 5 Sudeste 10 Sudoeste 0 -- -- 30
2020-09-13 21:00:00 31.7 5 Sudoeste 18 Sudoeste 0 -- -- 25
2020-09-13 20:00:00 34.2 8 Sur 21 Sur 0 -- -- 22
2020-09-13 19:00:00 35.6 11 Sur 26 Sudeste 0 -- -- 20
2020-09-13 18:00:00 36.3 14 Sudeste 28 Sudeste 0 -- -- 21
2020-09-13 17:00:00 36.3 14 Sudeste 27 Sudeste 0 -- -- 22
2020-09-13 16:00:00 35.3 13 Sudeste 26 Sudeste 0 -- -- 22
2020-09-13 15:00:00 34.1 12 Sudeste 25 Sudeste 0 -- -- 23
2020-09-13 14:00:00 33.4 16 Sur 27 Sur 0 -- -- 25
2020-09-13 13:00:00 33.5 13 Sudeste 22 Este 0 -- -- 26
2020-09-13 12:00:00 30.4 8 Este 17 Este 0 -- -- 30
2020-09-13 11:00:00 28.4 8 Este 12 Este 0 -- -- 34
2020-09-13 10:00:00 25.2 6 Sudeste 9 Sudeste 0 -- -- 38
2020-09-13 09:00:00 21.1 4 Este 13 Sudeste 0 -- -- 47
2020-09-13 08:00:00 20.2 7 Sudeste 8 Sudeste 0 -- -- 47
2020-09-13 07:00:00 21.1 5 Sur 9 Sur 0 -- -- 45
2020-09-13 06:00:00 21.7 8 Sur 10 Sur 0 -- -- 44
2020-09-13 05:00:00 22.1 3 Oeste 10 Este 0 -- -- 47
2020-09-13 04:00:00 22.8 5 Sudeste 11 Este 0 -- -- 44
2020-09-13 03:00:00 23 6 Este 13 Este 0 -- -- 47
2020-09-13 02:00:00 24 5 Este 10 Sudoeste 0 -- -- 41
2020-09-13 01:00:00 24.9 3 Sur 6 Sur 0 -- -- 35
2020-09-13 00:00:00 27.2 7 Sur 13 Sur 0 -- -- 31
2020-09-12 23:00:00 27.9 3 Sudoeste 8 Sur 0 -- -- 31
2020-09-12 22:00:00 28.4 3 Este 7 Sudeste 0 -- -- 32
2020-09-12 21:00:00 29.8 0 Calma 7 Noroeste 0 -- -- 30
2020-09-12 20:00:00 32.8 5 Noroeste 9 Nordeste 0 -- -- 27
2020-09-12 19:00:00 35.3 6 Nordeste 16 Este 0 -- -- 22
2020-09-12 18:00:00 36.6 11 Nordeste 22 Sudeste 0 -- -- 21
2020-09-12 17:00:00 35.4 5 Nordeste 18 Sur 0 -- -- 22
2020-09-12 16:00:00 35.8 8 Sudeste 36 Sudoeste 0 -- -- 22
2020-09-12 15:00:00 35.1 9 Sudeste 23 Sur 0 -- -- 22
2020-09-12 14:00:00 34.2 9 Sudeste 21 Sur 0 -- -- 23
2020-09-12 13:00:00 33.3 7 Sudeste 19 Sudeste 0 -- -- 25
2020-09-12 12:00:00 31.3 9 Este 14 Este 0 -- -- 29
2020-09-12 11:00:00 28.4 8 Este 11 Este 0 -- -- 33
2020-09-12 10:00:00 25.1 6 Sudeste 12 Sudeste 0 -- -- 37
2020-09-12 09:00:00 20.2 9 Sudeste 13 Sudeste 0 -- -- 45
2020-09-12 08:00:00 16.9 0 Calma 7 Sudeste 0 -- -- 59
2020-09-12 07:00:00 19.2 4 Sur 11 Sur 0 -- -- 47
2020-09-12 06:00:00 19.7 7 Sur 13 Sur 0 -- -- 41
2020-09-12 05:00:00 18.9 7 Sudoeste 9 Sudoeste 0 -- -- 44
2020-09-12 04:00:00 17.8 5 Este 8 Este 0 -- -- 53
2020-09-12 03:00:00 20.2 2 Sudeste 8 Sur 0 -- -- 41
2020-09-12 02:00:00 20.2 4 Norte 11 Noroeste 0 -- -- 47
2020-09-12 01:00:00 22.2 4 Sudoeste 8 Sudoeste 0 -- -- 34
2020-09-12 00:00:00 23.1 4 Sudoeste 6 Sudoeste 0 -- -- 32
2020-09-11 23:00:00 24.6 0 Calma 10 Norte 0 -- -- 30
2020-09-11 22:00:00 26.5 3 Oeste 6 Oeste 0 -- -- 26
2020-09-11 21:00:00 30 3 Oeste 10 Noroeste 0 -- -- 25
2020-09-11 20:00:00 33.2 8 Noroeste 14 Noroeste 0 -- -- 20
2020-09-11 19:00:00 33.3 10 Noroeste 19 Noroeste 0 -- -- 20
2020-09-11 18:00:00 34.6 9 Noroeste 22 Noroeste 0 -- -- 20
2020-09-11 17:00:00 35.4 9 Noroeste 27 Norte 0 -- -- 20
2020-09-11 16:00:00 35.1 11 Noroeste 22 Noroeste 0 -- -- 21
2020-09-11 15:00:00 35 5 Nordeste 16 Sur 0 -- -- 21
2020-09-11 14:00:00 34.3 7 Sur 16 Sur 0 -- -- 22
2020-09-11 13:00:00 33 6 Sudeste 17 Sur 0 -- -- 23
2020-09-11 12:00:00 29.5 5 Noroeste 16 Sur 0 -- -- 31
2020-09-11 11:00:00 28 9 Sudeste 17 Sudeste 0 -- -- 30
2020-09-11 10:00:00 24.6 8 Sudeste 15 Sudeste 0 -- -- 40
2020-09-11 09:00:00 20.2 6 Sur 13 Sur 0 -- -- 45
2020-09-11 08:00:00 18.5 8 Sur 15 Sur 0 -- -- 45
2020-09-11 07:00:00 17.6 10 Sur 12 Sur 0 -- -- 47
2020-09-11 06:00:00 18.4 5 Sudeste 8 Sudeste 0 -- -- 45
2020-09-11 05:00:00 19 2 Nordeste 8 Noroeste 0 -- -- 44
2020-09-11 04:00:00 19.7 5 Oeste 12 Sudeste 0 -- -- 44
2020-09-11 03:00:00 20.6 8 Sudeste 14 Sudeste 0 -- -- 40
2020-09-11 02:00:00 19.4 9 Este 12 Sudoeste 0 -- -- 48
2020-09-11 01:00:00 20.5 8 Sudoeste 10 Sudoeste 0 -- -- 42
2020-09-11 00:00:00 22.1 5 Sur 6 Sudeste 0 -- -- 37
2020-09-10 23:00:00 23.5 6 Nordeste 10 Oeste 0 -- -- 42
2020-09-10 22:00:00 28.4 8 Oeste 12 Oeste 0 -- -- 25
2020-09-10 21:00:00 28.9 5 Sudoeste 12 Oeste 0 -- -- 25
2020-09-10 20:00:00 32.6 10 Oeste 22 Noroeste 0 -- -- 22
2020-09-10 19:00:00 34.1 12 Noroeste 20 Noroeste 0 -- -- 21
2020-09-10 18:00:00 34.8 7 Nordeste 21 Noroeste 0 -- -- 21
2020-09-10 17:00:00 34.5 8 Norte 21 Nordeste 0 -- -- 20
2020-09-10 16:00:00 33.8 15 Noroeste 26 Noroeste 0 -- -- 21
2020-09-10 15:00:00 33.4 9 Noroeste 20 Noroeste 0 -- -- 21
2020-09-10 14:00:00 32.1 8 Norte 18 Norte 0 -- -- 29
2020-09-10 13:00:00 29.9 9 Norte 15 Norte 0 -- -- 36
2020-09-10 12:00:00 27.3 6 Norte 11 Noroeste 0 -- -- 40
2020-09-10 11:00:00 25 3 Norte 7 Noroeste 0 -- -- 43
2020-09-10 10:00:00 21.7 2 Este 6 Este 0 -- -- 51
2020-09-10 09:00:00 16.8 0 Calma 6 Sur 0 -- -- 64
2020-09-10 08:00:00 14.6 2 Sur 3 Sudoeste 0 -- -- 65
2020-09-10 07:00:00 16 0 Calma 4 Sudoeste 0 -- -- 58
2020-09-10 06:00:00 16.5 0 Calma 6 Noroeste 0 -- -- 61
2020-09-10 05:00:00 16.5 0 Calma 4 Noroeste 0 -- -- 61
2020-09-10 04:00:00 17.8 2 Este 9 Sudeste 0 -- -- 58
2020-09-10 03:00:00 19.2 0 Calma 8 Sudoeste 0 -- -- 52
2020-09-10 02:00:00 20 3 Sur 8 Este 0 -- -- 52
2020-09-10 01:00:00 20.9 2 Nordeste 5 Nordeste 0 -- -- 49
2020-09-10 00:00:00 21.4 3 Oeste 6 Este 0 -- -- 47
2020-09-09 23:00:00 22.5 5 Este 10 Noroeste 0 -- -- 45
2020-09-09 22:00:00 25.4 4 Oeste 9 Oeste 0 -- -- 35
2020-09-09 21:00:00 27.9 6 Oeste 13 Noroeste 0 -- -- 32
2020-09-09 20:00:00 30.7 8 Noroeste 15 Noroeste 0 -- -- 27
2020-09-09 19:00:00 32.2 8 Norte 15 Norte 0 -- -- 25
2020-09-09 18:00:00 32.5 5 Este 21 Norte 0 -- -- 23
2020-09-09 17:00:00 32.3 6 Este 19 Este 0 -- -- 24
2020-09-09 16:00:00 31.5 10 Nordeste 17 Norte 0 -- -- 23
2020-09-09 15:00:00 30.7 8 Nordeste 15 Sudeste 0 -- -- 28
2020-09-09 14:00:00 29.6 8 Sudoeste 17 Este 0 -- -- 35
2020-09-09 13:00:00 28 7 Sudeste 17 Sur 0 -- -- 40
2020-09-09 12:00:00 26.7 9 Sudeste 18 Este 0 -- -- 42
2020-09-09 11:00:00 24.9 3 Sudeste 15 Sudeste 0 -- -- 47
2020-09-09 10:00:00 22.8 9 Sudeste 14 Sudeste 0 -- -- 47
2020-09-09 09:00:00 19.3 3 Sur 8 Sur 0 -- -- 53
2020-09-09 08:00:00 16 5 Sudeste 12 Sur 0 -- -- 59
2020-09-09 07:00:00 17.6 9 Sur 13 Sur 0 -- -- 53
2020-09-09 06:00:00 17.5 8 Sur 12 Sur 0 -- -- 49
2020-09-09 05:00:00 18.4 4 Sur 10 Este 0 -- -- 45
2020-09-09 04:00:00 18.9 6 Sur 12 Este 0 -- -- 43
2020-09-09 03:00:00 18.5 4 Sudeste 8 Sudeste 0 -- -- 45
2020-09-09 02:00:00 19.5 6 Sudeste 12 Sur 0 -- -- 42
2020-09-09 01:00:00 20.6 6 Sur 11 Sudeste 0 -- -- 38
2020-09-09 00:00:00 21.5 6 Sur 11 Sudeste 0 -- -- 36
2020-09-08 23:00:00 22.6 6 Sudeste 11 Sudeste 0 -- -- 38
2020-09-08 22:00:00 23.9 0 Calma 10 Norte 0 -- -- 33
2020-09-08 21:00:00 26.7 0 Calma 10 Este 0 -- -- 29
2020-09-08 20:00:00 30 7 Nordeste 16 Este 0 -- -- 25
2020-09-08 19:00:00 31.8 4 Nordeste 12 Nordeste 0 -- -- 22
2020-09-08 18:00:00 31.3 9 Nordeste 18 Nordeste 0 -- -- 22
2020-09-08 17:00:00 31.4 6 Este 21 Sur 0 -- -- 23
2020-09-08 16:00:00 30.5 9 Nordeste 24 Este 0 -- -- 25
2020-09-08 15:00:00 30.4 16 Este 28 Este 0 -- -- 27
2020-09-08 14:00:00 29 17 Este 31 Este 0 -- -- 32
2020-09-08 13:00:00 27.3 16 Sudeste 32 Este 0 -- -- 37
2020-09-08 12:00:00 25.9 16 Sudeste 27 Sudeste 0 -- -- 43
2020-09-08 11:00:00 23.4 22 Este 32 Este 0 -- -- 50
2020-09-08 10:00:00 22 21 Sudeste 31 Este 0 -- -- 53
2020-09-08 09:00:00 19.6 10 Sudeste 16 Sudeste 0 -- -- 55
2020-09-08 08:00:00 17.4 10 Sudeste 14 Sudeste 0 -- -- 59
2020-09-08 07:00:00 17.4 8 Sudeste 12 Sudeste 0 -- -- 44
2020-09-08 06:00:00 18.1 10 Sudeste 18 Sudeste 0 -- -- 36
2020-09-08 05:00:00 17.7 9 Este 17 Este 0 -- -- 35
2020-09-08 04:00:00 18.5 6 Sudeste 9 Sudeste 0 -- -- 32
2020-09-08 03:00:00 19.5 4 Sudeste 6 Sudeste 0 -- -- 31
2020-09-08 02:00:00 19.9 5 Sudeste 10 Sur 0 -- -- 30
2020-09-08 01:00:00 21.2 8 Sur 13 Sudeste 0 -- -- 28
2020-09-08 00:00:00 23.8 11 Sudeste 15 Sudeste 0 -- -- 23
2020-09-07 23:00:00 24.8 9 Sudeste 17 Sudeste 0 -- -- 25
2020-09-07 22:00:00 26 7 Este 13 Sudeste 0 -- -- 31
2020-09-07 21:00:00 27.8 5 Este 20 Este 0 -- -- 29
2020-09-07 20:00:00 32 13 Este 25 Norte 0 -- -- 24
2020-09-07 19:00:00 35 14 Noroeste 31 Noroeste 0 -- -- 16
2020-09-07 18:00:00 35.4 22 Noroeste 35 Noroeste 0 -- -- 17
2020-09-07 17:00:00 35.8 19 Noroeste 34 Noroeste 0 -- -- 19
2020-09-07 16:00:00 34.7 8 Noroeste 24 Noroeste 0 -- -- 24
2020-09-07 15:00:00 34.5 11 Oeste 22 Noroeste 0 -- -- 24
2020-09-07 14:00:00 33.4 7 Norte 18 Norte 0 -- -- 28
2020-09-07 13:00:00 33.2 5 Sudoeste 14 Nordeste 0 -- -- 25
2020-09-07 12:00:00 31.6 5 Sudeste 14 Sudeste 0 -- -- 27
2020-09-07 11:00:00 29.1 8 Sur 14 Sur 0 -- -- 30
2020-09-07 10:00:00 25.9 9 Sur 14 Sur 0 -- -- 35
2020-09-07 09:00:00 20.6 4 Este 7 Sur 0 -- -- 50
2020-09-07 08:00:00 18 4 Sudoeste 6 Sur 0 -- -- 55
2020-09-07 07:00:00 17.9 3 Nordeste 8 Noroeste 0 -- -- 59
2020-09-07 06:00:00 18.3 3 Oeste 8 Sur 0 -- -- 58
2020-09-07 05:00:00 21.7 8 Sur 10 Sur 0 -- -- 41
2020-09-07 04:00:00 21.7 0 Calma 5 Sudeste 0 -- -- 40
2020-09-07 03:00:00 20.8 0 Calma 12 Sudoeste 0 -- -- 46
2020-09-07 02:00:00 21.7 7 Sudoeste 16 Nordeste 0 -- -- 44
2020-09-07 01:00:00 24.4 5 Norte 21 Nordeste 0 -- -- 44
2020-09-07 00:00:00 23.9 3 Sudoeste 5 Sur 0 -- -- 35
2020-09-06 23:00:00 24.9 3 Este 8 Este 0 -- -- 40
2020-09-06 22:00:00 29.7 5 Oeste 10 Oeste 0 -- -- 25
2020-09-06 21:00:00 31.6 7 Oeste 12 Noroeste 0 -- -- 23
2020-09-06 20:00:00 35.2 8 Oeste 15 Oeste 0 -- -- 20
2020-09-06 19:00:00 36.1 9 Noroeste 22 Noroeste 0 -- -- 19
2020-09-06 18:00:00 36.7 11 Noroeste 35 Noroeste 0 -- -- 21
2020-09-06 17:00:00 36.4 8 Norte 18 Noroeste 0 -- -- 20
2020-09-06 16:00:00 35.7 9 Noroeste 18 Norte 0 -- -- 21
2020-09-06 15:00:00 34.3 5 Norte 17 Norte 0 -- -- 24
2020-09-06 14:00:00 33.3 6 Norte 15 Nordeste 0 -- -- 27
2020-09-06 13:00:00 31.5 7 Norte 14 Nordeste 0 -- -- 29
2020-09-06 12:00:00 30.3 6 Este 15 Sudeste 0 -- -- 31
2020-09-06 11:00:00 28.1 9 Sudeste 17 Sudeste 0 -- -- 35
2020-09-06 10:00:00 25.6 9 Sudeste 14 Sur 0 -- -- 36
2020-09-06 09:00:00 22.9 8 Sur 14 Sur 0 -- -- 42
2020-09-06 08:00:00 19.5 10 Sur 14 Sur 0 -- -- 48
2020-09-06 07:00:00 18.3 8 Sur 10 Sur 0 -- -- 52
2020-09-06 06:00:00 17.8 4 Sur 6 Sur 0 -- -- 54
2020-09-06 05:00:00 18.2 4 Sur 7 Sur 0 -- -- 53
2020-09-06 04:00:00 18.7 0 Calma 11 Sudeste 0 -- -- 59
2020-09-06 03:00:00 19.5 4 Sudeste 8 Este 0 -- -- 54
2020-09-06 02:00:00 21.5 2 Sudoeste 9 Sur 0 -- -- 44
2020-09-06 01:00:00 23.2 4 Sur 7 Sur 0 -- -- 38
2020-09-06 00:00:00 24.3 3 Oeste 8 Sudeste 0 -- -- 36
2020-09-05 23:00:00 24.8 6 Sudeste 8 Sudeste 0 -- -- 38
2020-09-05 22:00:00 28.9 8 Sudoeste 14 Oeste 0 -- -- 28
2020-09-05 21:00:00 31 8 Oeste 14 Noroeste 0 -- -- 27
2020-09-05 20:00:00 34.7 8 Noroeste 14 Noroeste 0 -- -- 23
2020-09-05 19:00:00 35.8 6 Norte 15 Norte 0 -- -- 21
2020-09-05 18:00:00 35.8 8 Noroeste 22 Norte 0 -- -- 21
2020-09-05 17:00:00 35.8 11 Noroeste 28 Noroeste 0 -- -- 22
2020-09-05 16:00:00 35.3 7 Norte 16 Norte 0 -- -- 22
2020-09-05 15:00:00 35 5 Sudeste 19 Sudeste 0 -- -- 22
2020-09-05 14:00:00 33.6 12 Sur 26 Sudoeste 0 -- -- 25
2020-09-05 13:00:00 32 6 Sudeste 13 Sur 0 -- -- 27
2020-09-05 12:00:00 30.1 8 Este 16 Este 0 -- -- 32
2020-09-05 11:00:00 27.8 7 Sudeste 16 Sudeste 0 -- -- 36
2020-09-05 10:00:00 25.1 9 Sudeste 15 Sudeste 0 -- -- 40
2020-09-05 09:00:00 20.9 10 Sudeste 17 Sur 0 -- -- 46
2020-09-05 08:00:00 19.2 9 Sur 14 Sur 0 -- -- 51
2020-09-05 07:00:00 17.6 6 Sudeste 10 Sudeste 0 -- -- 46
2020-09-05 06:00:00 17.6 3 Sudeste 8 Este 0 -- -- 48
2020-09-05 05:00:00 17.5 3 Sudeste 6 Este 0 -- -- 51
2020-09-05 04:00:00 18.9 0 Calma 6 Sudeste 0 -- -- 45
2020-09-05 03:00:00 19.5 4 Sudeste 12 Sudeste 0 -- -- 39
2020-09-05 02:00:00 21.6 6 Sur 9 Sur 0 -- -- 37
2020-09-05 01:00:00 22.1 9 Sudeste 13 Sudeste 0 -- -- 41
2020-09-05 00:00:00 24.5 8 Sudoeste 12 Sur 0 -- -- 35
2020-09-04 23:00:00 25.5 7 Sudoeste 15 Este 0 -- -- 34
2020-09-04 22:00:00 27.8 4 Oeste 12 Norte 0 -- -- 31
2020-09-04 21:00:00 31.2 7 Oeste 14 Oeste 0 -- -- 27
2020-09-04 20:00:00 34.5 10 Noroeste 18 Noroeste 0 -- -- 24
2020-09-04 19:00:00 36.2 9 Noroeste 26 Sudoeste 0 -- -- 22
2020-09-04 18:00:00 36.2 8 Sur 22 Sur 0 -- -- 20
2020-09-04 17:00:00 35.9 12 Sudeste 42 Sudoeste 0 -- -- 21
2020-09-04 16:00:00 35.7 9 Sur 45 Este 0 -- -- 23
2020-09-04 15:00:00 34.4 8 Sudeste 26 Sudeste 0 -- -- 24
2020-09-04 14:00:00 33.2 10 Este 19 Este 0 -- -- 27
2020-09-04 13:00:00 31.4 9 Nordeste 17 Este 0 -- -- 29
2020-09-04 12:00:00 29.4 6 Nordeste 12 Nordeste 0 -- -- 32
2020-09-04 11:00:00 27.4 6 Este 9 Nordeste 0 -- -- 35
2020-09-04 10:00:00 25.2 4 Sudeste 6 Sudeste 0 -- -- 37
2020-09-04 09:00:00 20.6 2 Sudeste 5 Sudeste 0 -- -- 47
2020-09-04 08:00:00 17.4 0 Calma 5 Nordeste 0 -- -- 55
2020-09-04 07:00:00 17.5 4 Sur 5 Sur 0 -- -- 54
2020-09-04 06:00:00 18.7 3 Este 6 Este 0 -- -- 49
2020-09-04 05:00:00 19.4 3 Sudeste 8 Sudoeste 0 -- -- 47
2020-09-04 04:00:00 19.2 3 Sudeste 8 Sudeste 0 -- -- 48
2020-09-04 03:00:00 20.7 3 Nordeste 9 Este 0 -- -- 47
2020-09-04 02:00:00 23.2 5 Sur 21 Sudeste 0 -- -- 38
2020-09-04 01:00:00 24.8 10 Sur 20 Sur 0 -- -- 33
2020-09-04 00:00:00 23.8 5 Sudoeste 8 Sudoeste 0 -- -- 33
2020-09-03 23:00:00 24.8 4 Sudeste 7 Sudeste 0 -- -- 33
2020-09-03 22:00:00 28.4 4 Noroeste 11 Noroeste 0 -- -- 27
2020-09-03 21:00:00 30.5 6 Oeste 13 Noroeste 0 -- -- 26
2020-09-03 20:00:00 35 3 Norte 10 Norte 0 -- -- 20
2020-09-03 19:00:00 35.4 5 Norte 15 Norte 0 -- -- 20
2020-09-03 18:00:00 35.6 8 Nordeste 19 Nordeste 0 -- -- 19
2020-09-03 17:00:00 35.6 7 Norte 14 Sur 0 -- -- 20
2020-09-03 16:00:00 34.8 6 Este 20 Sudeste 0 -- -- 20
2020-09-03 15:00:00 34.1 5 Noroeste 22 Sur 0 -- -- 22
2020-09-03 14:00:00 32.9 7 Sudeste 18 Este 0 -- -- 26
2020-09-03 13:00:00 31.4 8 Sur 17 Sur 0 -- -- 29
2020-09-03 12:00:00 29.5 9 Sur 17 Sur 0 -- -- 30
2020-09-03 11:00:00 26.9 9 Sudeste 18 Sudeste 0 -- -- 34
2020-09-03 10:00:00 24.7 9 Sur 18 Sur 0 -- -- 37
2020-09-03 09:00:00 19 4 Sudeste 10 Este 0 -- -- 46
2020-09-03 08:00:00 15.3 5 Este 10 Sudeste 0 -- -- 54
2020-09-03 07:00:00 17.7 7 Sudeste 11 Sur 0 -- -- 41
2020-09-03 06:00:00 18.1 4 Sur 7 Sur 0 -- -- 40
2020-09-03 05:00:00 19.2 6 Sur 8 Sudoeste 0 -- -- 37
2020-09-03 04:00:00 20.1 3 Sur 11 Sudeste 0 -- -- 35
2020-09-03 03:00:00 20 6 Sur 9 Sur 0 -- -- 35
2020-09-03 02:00:00 19.5 6 Sudeste 17 Este 0 -- -- 38
2020-09-03 01:00:00 21.1 6 Sudoeste 7 Sudoeste 0 -- -- 33
2020-09-03 00:00:00 22 6 Sudoeste 8 Sudoeste 0 -- -- 32
2020-09-02 23:00:00 22.7 6 Sudeste 9 Sudeste 0 -- -- 33
2020-09-02 22:00:00 25.7 5 Noroeste 11 Nordeste 0 -- -- 28
2020-09-02 21:00:00 29.1 6 Oeste 14 Noroeste 0 -- -- 22
2020-09-02 20:00:00 32.1 12 Noroeste 22 Norte 0 -- -- 20
2020-09-02 19:00:00 33.4 10 Norte 20 Noroeste 0 -- -- 19
2020-09-02 18:00:00 34.1 8 Sudoeste 20 Noroeste 0 -- -- 18
2020-09-02 17:00:00 34.3 6 Nordeste 18 Oeste 0 -- -- 17
2020-09-02 16:00:00 33.8 6 Sudeste 15 Nordeste 0 -- -- 17
2020-09-02 15:00:00 32.6 5 Norte 15 Sudoeste 0 -- -- 20
2020-09-02 14:00:00 31.5 8 Sudoeste 17 Sur 0 -- -- 22
2020-09-02 13:00:00 29.3 6 Sudeste 16 Sudeste 0 -- -- 28
2020-09-02 12:00:00 26.9 8 Sudeste 15 Sudeste 0 -- -- 33
2020-09-02 11:00:00 23.4 5 Este 9 Este 0 -- -- 48
2020-09-02 10:00:00 19.7 3 Este 6 Nordeste 0 -- -- 51
2020-09-02 09:00:00 16.2 3 Sudeste 6 Sudeste 0 -- -- 61
2020-09-02 08:00:00 13 3 Nordeste 6 Sudoeste 0 -- -- 71
2020-09-02 07:00:00 14.7 6 Sudoeste 8 Sudoeste 0 -- -- 64
2020-09-02 06:00:00 15.6 3 Sur 11 Sur 0 -- -- 59
2020-09-02 05:00:00 14.3 4 Nordeste 7 Norte 0 -- -- 61
2020-09-02 04:00:00 15.6 5 Noroeste 6 Noroeste 0 -- -- 53
2020-09-02 03:00:00 16.2 0 Calma 7 Noroeste 0 -- -- 52
2020-09-02 02:00:00 17.7 4 Oeste 8 Noroeste 0 -- -- 37
2020-09-02 01:00:00 19.6 3 Oeste 8 Nordeste 0 -- -- 37
2020-09-02 00:00:00 20.8 0 Calma 2 Sudoeste 0 -- -- 28
2020-09-01 23:00:00 22.9 3 Sur 5 Sudeste 0 -- -- 25
2020-09-01 22:00:00 25.1 4 Este 6 Este 0 -- -- 24
2020-09-01 21:00:00 29.1 0 Calma 10 Noroeste 0 -- -- 20
2020-09-01 20:00:00 29.6 4 Noroeste 16 Noroeste 0 -- -- 19
2020-09-01 19:00:00 30.2 13 Noroeste 23 Oeste 0 -- -- 19
2020-09-01 18:00:00 32.1 10 Oeste 21 Noroeste 0 -- -- 17
2020-09-01 17:00:00 31.6 13 Noroeste 27 Noroeste 0 -- -- 17
2020-09-01 16:00:00 30.2 13 Noroeste 25 Noroeste 0 -- -- 19
2020-09-01 15:00:00 31.3 13 Noroeste 23 Noroeste 0 -- -- 20
2020-09-01 14:00:00 30.1 7 Noroeste 14 Oeste 0 -- -- 23
2020-09-01 13:00:00 28.9 4 Oeste 17 Sur 0 -- -- 22
2020-09-01 12:00:00 25.5 5 Sudeste 13 Sudeste 0 -- -- 25
2020-09-01 11:00:00 22.9 0 Calma 9 Sur 0 -- -- 33
2020-09-01 10:00:00 21.3 6 Sudeste 17 Sudeste 0 -- -- 33
2020-09-01 09:00:00 19.3 6 Sur 9 Sur 0 -- -- 37
2020-09-01 08:00:00 18 6 Sur 8 Sur 0 -- -- 38
2020-09-01 07:00:00 17.5 3 Sudoeste 4 Sur 0 -- -- 42
2020-09-01 06:00:00 16.4 4 Sudoeste 6 Este 0 -- -- 46
2020-09-01 05:00:00 17.4 4 Sur 9 Sudeste 0 -- -- 39
2020-09-01 04:00:00 16.6 9 Este 10 Este 0 -- -- 40
2020-09-01 03:00:00 17.3 4 Sudeste 8 Sur 0 -- -- 41
2020-09-01 02:00:00 17.5 4 Sudeste 10 Sur 0 -- -- 46
2020-09-01 01:00:00 19.8 8 Sudoeste 9 Sur 0 -- -- 31
2020-09-01 00:00:00 19.9 3 Oeste 5 Noroeste 0 -- -- 29
2020-08-31 23:00:00 20.6 0 Calma 17 Norte 0 -- -- 26
2020-08-31 22:00:00 21.9 4 Sudoeste 8 Sudoeste 0 -- -- 23
2020-08-31 21:00:00 26.9 0 Calma 8 Noroeste 0 -- -- 19
2020-08-31 20:00:00 30.2 5 Norte 12 Noroeste 0 -- -- 17
2020-08-31 19:00:00 30.9 9 Noroeste 15 Noroeste 0 -- -- 15
2020-08-31 18:00:00 30.9 6 Norte 21 Este 0 -- -- 17
2020-08-31 17:00:00 30.5 10 Nordeste 20 Nordeste 0 -- -- 19
2020-08-31 16:00:00 30.2 12 Nordeste 25 Nordeste 0 -- -- 19
2020-08-31 15:00:00 29.2 7 Norte 18 Este 0 -- -- 21
2020-08-31 14:00:00 29.2 8 Este 23 Sudeste 0 -- -- 21
2020-08-31 13:00:00 27.9 8 Sudeste 21 Este 0 -- -- 23
2020-08-31 12:00:00 25.9 10 Este 20 Sudeste 0 -- -- 26
2020-08-31 11:00:00 23.5 10 Este 17 Este 0 -- -- 29
2020-08-31 10:00:00 20.8 8 Sudeste 12 Sudeste 0 -- -- 33
2020-08-31 09:00:00 17.7 7 Sudeste 11 Sudeste 0 -- -- 40
2020-08-31 08:00:00 14 9 Sur 13 Sur 0 -- -- 46
2020-08-31 07:00:00 15 11 Sur 14 Sur 0 -- -- 42
2020-08-31 06:00:00 14.6 10 Sur 12 Sur 0 -- -- 43
2020-08-31 05:00:00 15.4 6 Sur 10 Sur 0 -- -- 39
2020-08-31 04:00:00 15.8 4 Sudeste 7 Sudeste 0 -- -- 38
2020-08-31 03:00:00 15.8 0 Calma 8 Sur 0 -- -- 39
2020-08-31 02:00:00 15.9 6 Sur 9 Sur 0 -- -- 39
2020-08-31 01:00:00 17.7 0 Calma 4 Oeste 0 -- -- 37
2020-08-31 00:00:00 19 0 Calma 6 Norte 0 -- -- 34
2020-08-30 23:00:00 20.1 2 Noroeste 5 Noroeste 0 -- -- 32
2020-08-30 22:00:00 21.3 4 Nordeste 18 Nordeste 0 -- -- 30
2020-08-30 21:00:00 24.2 10 Nordeste 23 Noroeste 0 -- -- 29
2020-08-30 20:00:00 27.9 9 Oeste 19 Noroeste 0 -- -- 24
2020-08-30 19:00:00 28.7 8 Norte 18 Norte 0 -- -- 23
2020-08-30 18:00:00 28.8 8 Oeste 16 Oeste 0 -- -- 24
2020-08-30 17:00:00 28.1 8 Norte 19 Noroeste 0 -- -- 25
2020-08-30 16:00:00 27.3 8 Norte 23 Este 0 -- -- 25
2020-08-30 15:00:00 27.4 8 Norte 19 Nordeste 0 -- -- 25
2020-08-30 14:00:00 26.1 5 Norte 22 Este 0 -- -- 26
2020-08-30 13:00:00 25.6 12 Este 25 Este 0 -- -- 29
2020-08-30 12:00:00 24.5 15 Este 25 Este 0 -- -- 31
2020-08-30 11:00:00 22.5 17 Este 28 Sudeste 0 -- -- 35
2020-08-30 10:00:00 19.8 10 Este 13 Este 0 -- -- 45
2020-08-30 09:00:00 16.9 5 Este 9 Sur 0 -- -- 49
2020-08-30 08:00:00 13 6 Sur 10 Este 0 -- -- 59
2020-08-30 07:00:00 12.7 3 Este 8 Este 0 -- -- 57
2020-08-30 06:00:00 13.5 4 Sudeste 8 Este 0 -- -- 53
2020-08-30 05:00:00 13.9 3 Este 6 Sur 0 -- -- 48
2020-08-30 04:00:00 15.1 4 Sur 7 Sur 0 -- -- 46
2020-08-30 03:00:00 16.2 2 Noroeste 4 Nordeste 0 -- -- 44
2020-08-30 02:00:00 17.3 0 Calma 7 Sudoeste 0 -- -- 40
2020-08-30 01:00:00 18.4 0 Calma 6 Noroeste 0 -- -- 38
2020-08-30 00:00:00 19.9 4 Norte 11 Noroeste 0 -- -- 35
2020-08-29 23:00:00 21.2 7 Norte 12 Noroeste 0 -- -- 32
2020-08-29 22:00:00 21.5 5 Noroeste 11 Nordeste 0 -- -- 32
2020-08-29 21:00:00 23 9 Nordeste 22 Nordeste 0 -- -- 33
2020-08-29 20:00:00 26.8 14 Nordeste 35 Noroeste 0 -- -- 25
2020-08-29 19:00:00 27.8 18 Noroeste 37 Norte 0 -- -- 24
2020-08-29 18:00:00 28.6 18 Noroeste 36 Noroeste 0 -- -- 24
2020-08-29 17:00:00 28.7 17 Noroeste 33 Noroeste 0 -- -- 23
2020-08-29 16:00:00 27 18 Oeste 33 Noroeste 0 -- -- 27
2020-08-29 15:00:00 26.6 12 Noroeste 29 Norte 0 -- -- 28
2020-08-29 14:00:00 26 11 Noroeste 26 Noroeste 0 -- -- 30
2020-08-29 13:00:00 24.2 9 Noroeste 24 Noroeste 0 -- -- 35
2020-08-29 12:00:00 22.9 5 Nordeste 11 Norte 0 -- -- 37
2020-08-29 11:00:00 20.6 5 Este 12 Norte 0 -- -- 42
2020-08-29 10:00:00 18.6 2 Noroeste 21 Noroeste 0 -- -- 44
2020-08-29 09:00:00 16.4 11 Noroeste 24 Oeste 0 -- -- 51
2020-08-29 08:00:00 15.2 14 Noroeste 26 Noroeste 0 -- -- 52
2020-08-29 07:00:00 15.8 16 Noroeste 29 Noroeste 0 -- -- 50
2020-08-29 06:00:00 17.3 13 Noroeste 39 Noroeste 0 -- -- 47
2020-08-29 05:00:00 17.9 23 Noroeste 37 Noroeste 0 -- -- 49
2020-08-29 04:00:00 18.3 21 Noroeste 33 Noroeste 0 -- -- 52
2020-08-29 03:00:00 18.7 21 Noroeste 35 Noroeste 0 -- -- 56
2020-08-29 02:00:00 19.7 21 Noroeste 33 Noroeste 0 -- -- 54
2020-08-29 01:00:00 20.7 20 Noroeste 33 Noroeste 0 -- -- 50
2020-08-29 00:00:00 21.9 19 Noroeste 35 Noroeste 0 -- -- 42
2020-08-28 23:00:00 23.6 18 Noroeste 38 Oeste 0 -- -- 32
2020-08-28 22:00:00 25.3 21 Noroeste 36 Oeste 0 -- -- 29
2020-08-28 21:00:00 27.4 21 Noroeste 34 Noroeste 0 -- -- 23
2020-08-28 20:00:00 30.8 18 Noroeste 42 Noroeste 0 -- -- 18
2020-08-28 19:00:00 32.5 27 Noroeste 42 Noroeste 0 -- -- 18
2020-08-28 18:00:00 32.8 25 Noroeste 42 Noroeste 0 -- -- 26
2020-08-28 17:00:00 32.6 26 Noroeste 42 Noroeste 0 -- -- 30
2020-08-28 16:00:00 32.6 24 Noroeste 39 Noroeste 0 -- -- 28
2020-08-28 15:00:00 31.6 26 Noroeste 39 Noroeste 0 -- -- 30
2020-08-28 14:00:00 30.9 21 Noroeste 37 Noroeste 0 -- -- 38
2020-08-28 13:00:00 29.6 19 Noroeste 39 Noroeste 0 -- -- 42
2020-08-28 12:00:00 27.2 24 Noroeste 37 Noroeste 0 -- -- 50
2020-08-28 11:00:00 24.8 18 Noroeste 32 Noroeste 0 -- -- 56
2020-08-28 10:00:00 22.8 21 Noroeste 33 Noroeste 0 -- -- 63
2020-08-28 09:00:00 21.3 19 Noroeste 32 Noroeste 0 -- -- 69
2020-08-28 08:00:00 20 18 Noroeste 34 Oeste 0 -- -- 75
2020-08-28 07:00:00 20.6 22 Noroeste 36 Noroeste 0 -- -- 74
2020-08-28 06:00:00 21.1 23 Noroeste 40 Oeste 0 -- -- 73
2020-08-28 05:00:00 21.8 21 Noroeste 38 Noroeste 0 -- -- 71
2020-08-28 04:00:00 23.5 22 Noroeste 36 Noroeste 0 -- -- 64
2020-08-28 03:00:00 24.8 20 Noroeste 38 Noroeste 0 -- -- 58
2020-08-28 02:00:00 26 24 Oeste 38 Oeste 0 -- -- 53
2020-08-28 01:00:00 27.6 23 Noroeste 37 Oeste 0 -- -- 48
2020-08-28 00:00:00 29 20 Noroeste 41 Oeste 0 -- -- 46